sensor_id;sensor_type;location;lat;lon;timestamp;pressure;altitude;pressure_sealevel;temperature;humidity
3206;BME280;1615;53.602;11.418;2022-12-13T00:00:24;100905.78;;;2.29;100.00
3206;BME280;1615;53.602;11.418;2022-12-13T00:02:49;100867.25;;;1.99;100.00
3206;BME280;1615;53.602;11.418;2022-12-13T00:05:14;100909.31;;;2.18;100.00
3206;BME280;1615;53.602;11.418;2022-12-13T00:07:40;100850.53;;;1.79;100.00
3206;BME280;1615;53.602;11.418;2022-12-13T00:10:05;100906.47;;;2.13;100.00
3206;BME280;1615;53.602;11.418;2022-12-13T00:12:31;100905.44;;;2.02;100.00
3206;BME280;1615;53.602;11.418;2022-12-13T00:14:57;100916.03;;;2.04;100.00
3206;BME280;1615;53.602;11.418;2022-12-13T00:17:22;100918.13;;;2.13;100.00
3206;BME280;1615;53.602;11.418;2022-12-13T00:19:48;100910.38;;;2.17;100.00
3206;BME280;1615;53.602;11.418;2022-12-13T00:22:14;100906.47;;;2.13;100.00
3206;BME280;1615;53.602;11.418;2022-12-13T00:24:41;100929.28;;;2.17;100.00
3206;BME280;1615;53.602;11.418;2022-12-13T00:27:06;100906.72;;;2.23;100.00
3206;BME280;1615;53.602;11.418;2022-12-13T00:29:31;100895.09;;;2.22;100.00
3206;BME280;1615;53.602;11.418;2022-12-13T00:31:57;100904.13;;;2.28;100.00
3206;BME280;1615;53.602;11.418;2022-12-13T00:34:23;100899.22;;;2.25;100.00
3206;BME280;1615;53.602;11.418;2022-12-13T00:36:48;100901.19;;;2.29;100.00
3206;BME280;1615;53.602;11.418;2022-12-13T00:39:15;100892.97;;;2.36;100.00
3206;BME280;1615;53.602;11.418;2022-12-13T00:41:41;100902.84;;;2.42;100.00
3206;BME280;1615;53.602;11.418;2022-12-13T00:44:10;100810.81;;;1.68;100.00
3206;BME280;1615;53.602;11.418;2022-12-13T00:46:36;100883.69;;;2.32;100.00
3206;BME280;1615;53.602;11.418;2022-12-13T00:49:02;100876.41;;;2.21;100.00
3206;BME280;1615;53.602;11.418;2022-12-13T00:51:30;100889.56;;;2.29;100.00
3206;BME280;1615;53.602;11.418;2022-12-13T00:53:56;100882.72;;;2.38;100.00
3206;BME280;1615;53.602;11.418;2022-12-13T00:56:24;100885.09;;;2.46;100.00
3206;BME280;1615;53.602;11.418;2022-12-13T00:58:50;100888.38;;;2.48;100.00
3206;BME280;1615;53.602;11.418;2022-12-13T01:01:18;100883.91;;;2.42;100.00
3206;BME280;1615;53.602;11.418;2022-12-13T01:03:44;100800.25;;;1.78;100.00
3206;BME280;1615;53.602;11.418;2022-12-13T01:06:16;100886.16;;;2.22;100.00
3206;BME280;1615;53.602;11.418;2022-12-13T01:08:42;100851.97;;;1.93;100.00
3206;BME280;1615;53.602;11.418;2022-12-13T01:11:08;100894.59;;;2.25;100.00
3206;BME280;1615;53.602;11.418;2022-12-13T01:13:34;100791.34;;;1.66;100.00
3206;BME280;1615;53.602;11.418;2022-12-13T01:16:02;100869.22;;;2.15;100.00
3206;BME280;1615;53.602;11.418;2022-12-13T01:18:28;100885.81;;;2.30;100.00
3206;BME280;1615;53.602;11.418;2022-12-13T01:23:27;100892.97;;;2.24;100.00
3206;BME280;1615;53.602;11.418;2022-12-13T01:25:52;100898.72;;;2.28;100.00
3206;BME280;1615;53.602;11.418;2022-12-13T01:28:18;100896.13;;;2.33;100.00
3206;BME280;1615;53.602;11.418;2022-12-13T01:30:43;100893.94;;;2.30;100.00
3206;BME280;1615;53.602;11.418;2022-12-13T01:33:09;100887.44;;;2.31;100.00
3206;BME280;1615;53.602;11.418;2022-12-13T01:35:34;100843.97;;;1.98;100.00
3206;BME280;1615;53.602;11.418;2022-12-13T01:37:59;100892.84;;;2.31;100.00
3206;BME280;1615;53.602;11.418;2022-12-13T01:40:25;100888.41;;;2.25;100.00
3206;BME280;1615;53.602;11.418;2022-12-13T01:42:50;100892.97;;;2.24;100.00
3206;BME280;1615;53.602;11.418;2022-12-13T01:45:25;100890.97;;;2.20;100.00
3206;BME280;1615;53.602;11.418;2022-12-13T01:47:53;100250.59;;;-1.60;100.00
3206;BME280;1615;53.602;11.418;2022-12-13T01:50:28;100890.50;;;2.23;100.00
3206;BME280;1615;53.602;11.418;2022-12-13T01:52:56;100837.03;;;1.79;100.00
3206;BME280;1615;53.602;11.418;2022-12-13T01:55:24;100881.81;;;2.21;100.00
3206;BME280;1615;53.602;11.418;2022-12-13T01:57:54;100815.91;;;1.76;100.00
3206;BME280;1615;53.602;11.418;2022-12-13T02:00:23;100882.25;;;2.18;100.00
3206;BME280;1615;53.602;11.418;2022-12-13T02:02:49;100873.34;;;2.17;100.00
3206;BME280;1615;53.602;11.418;2022-12-13T02:05:26;100872.63;;;2.22;100.00
3206;BME280;1615;53.602;11.418;2022-12-13T02:07:52;100810.81;;;1.91;100.00
3206;BME280;1615;53.602;11.418;2022-12-13T02:10:19;100886.84;;;2.29;100.00
3206;BME280;1615;53.602;11.418;2022-12-13T02:12:45;100864.41;;;2.17;100.00
3206;BME280;1615;53.602;11.418;2022-12-13T02:15:13;100876.63;;;2.31;100.00
3206;BME280;1615;53.602;11.418;2022-12-13T02:23:42;100869.81;;;2.17;100.00
3206;BME280;1615;53.602;11.418;2022-12-13T02:26:26;100869.00;;;2.16;100.00
3206;BME280;1615;53.602;11.418;2022-12-13T02:34:37;100781.47;;;1.60;100.00
3206;BME280;1615;53.602;11.418;2022-12-13T02:37:22;100864.06;;;2.25;100.00
3206;BME280;1615;53.602;11.418;2022-12-13T02:39:57;100777.00;;;1.77;100.00
3206;BME280;1615;53.602;11.418;2022-12-13T02:42:42;100852.88;;;2.33;100.00
3206;BME280;1615;53.602;11.418;2022-12-13T02:45:18;100855.81;;;2.31;100.00
3206;BME280;1615;53.602;11.418;2022-12-13T02:47:45;100790.88;;;1.92;100.00
3206;BME280;1615;53.602;11.418;2022-12-13T02:50:13;100848.75;;;2.30;100.00
3206;BME280;1615;53.602;11.418;2022-12-13T02:52:40;100852.53;;;2.29;100.00
3206;BME280;1615;53.602;11.418;2022-12-13T02:55:10;100380.25;;;-0.58;100.00
3206;BME280;1615;53.602;11.418;2022-12-13T02:57:38;100862.03;;;2.32;100.00
3206;BME280;1615;53.602;11.418;2022-12-13T03:05:13;100863.72;;;2.10;100.00
3206;BME280;1615;53.602;11.418;2022-12-13T03:08:22;100856.31;;;2.05;100.00
3206;BME280;1615;53.602;11.418;2022-12-13T03:11:04;100862.28;;;1.96;100.00
3206;BME280;1615;53.602;11.418;2022-12-13T03:16:33;100859.72;;;1.78;100.00
3206;BME280;1615;53.602;11.418;2022-12-13T03:19:04;100864.75;;;1.63;100.00
3206;BME280;1615;53.602;11.418;2022-12-13T03:21:41;100865.22;;;1.60;100.00
3206;BME280;1615;53.602;11.418;2022-12-13T03:24:07;100795.38;;;1.22;100.00
3206;BME280;1615;53.602;11.418;2022-12-13T03:26:33;100859.69;;;1.55;100.00
3206;BME280;1615;53.602;11.418;2022-12-13T03:29:00;100857.56;;;1.57;100.00
3206;BME280;1615;53.602;11.418;2022-12-13T03:31:25;100850.03;;;1.59;100.00
3206;BME280;1615;53.602;11.418;2022-12-13T03:33:51;100852.16;;;1.57;100.00
3206;BME280;1615;53.602;11.418;2022-12-13T03:36:17;100851.59;;;1.55;100.00
3206;BME280;1615;53.602;11.418;2022-12-13T03:38:44;100819.25;;;1.37;100.00
3206;BME280;1615;53.602;11.418;2022-12-13T03:41:12;100847.22;;;1.54;100.00
3206;BME280;1615;53.602;11.418;2022-12-13T03:43:38;100849.34;;;1.52;100.00
3206;BME280;1615;53.602;11.418;2022-12-13T03:46:05;100846.41;;;1.53;100.00
3206;BME280;1615;53.602;11.418;2022-12-13T03:48:30;100845.00;;;1.51;100.00
3206;BME280;1615;53.602;11.418;2022-12-13T03:50:56;100786.31;;;1.17;100.00
3206;BME280;1615;53.602;11.418;2022-12-13T03:53:22;100844.63;;;1.59;100.00
3206;BME280;1615;53.602;11.418;2022-12-13T03:55:47;100821.75;;;1.50;100.00
3206;BME280;1615;53.602;11.418;2022-12-13T03:58:13;100830.81;;;1.67;100.00
3206;BME280;1615;53.602;11.418;2022-12-13T04:00:38;100837.72;;;1.63;100.00
3206;BME280;1615;53.602;11.418;2022-12-13T04:03:04;100836.66;;;1.64;100.00
3206;BME280;1615;53.602;11.418;2022-12-13T04:05:29;100739.88;;;1.15;100.00
3206;BME280;1615;53.602;11.418;2022-12-13T04:07:55;100825.75;;;1.70;100.00
3206;BME280;1615;53.602;11.418;2022-12-13T04:10:21;100827.88;;;1.68;100.00
3206;BME280;1615;53.602;11.418;2022-12-13T04:12:46;100825.41;;;1.67;100.00
3206;BME280;1615;53.602;11.418;2022-12-13T04:15:30;100825.41;;;1.67;100.00
3206;BME280;1615;53.602;11.418;2022-12-13T04:17:55;100823.28;;;1.69;100.00
3206;BME280;1615;53.602;11.418;2022-12-13T04:20:21;100790.59;;;1.59;100.00
3206;BME280;1615;53.602;11.418;2022-12-13T04:22:46;100751.63;;;1.32;100.00
3206;BME280;1615;53.602;11.418;2022-12-13T04:25:11;100814.84;;;1.77;100.00
3206;BME280;1615;53.602;11.418;2022-12-13T04:27:36;100814.84;;;1.77;100.00
3206;BME280;1615;53.602;11.418;2022-12-13T04:30:04;100823.50;;;1.67;100.00
3206;BME280;1615;53.602;11.418;2022-12-13T04:32:29;100820.31;;;1.59;100.00
3206;BME280;1615;53.602;11.418;2022-12-13T04:34:55;100818.81;;;1.63;100.00
3206;BME280;1615;53.602;11.418;2022-12-13T04:37:20;100732.34;;;1.17;100.00
3206;BME280;1615;53.602;11.418;2022-12-13T04:39:45;100362.59;;;-0.95;100.00
3206;BME280;1615;53.602;11.418;2022-12-13T04:42:11;100749.53;;;1.34;100.00
3206;BME280;1615;53.602;11.418;2022-12-13T04:44:37;100750.69;;;1.38;100.00
3206;BME280;1615;53.602;11.418;2022-12-13T04:47:02;100808.94;;;1.80;100.00
3206;BME280;1615;53.602;11.418;2022-12-13T04:49:30;100808.25;;;1.73;100.00
3206;BME280;1615;53.602;11.418;2022-12-13T04:51:56;100808.72;;;1.58;100.00
3206;BME280;1615;53.602;11.418;2022-12-13T04:54:22;100682.06;;;0.70;100.00
3206;BME280;1615;53.602;11.418;2022-12-13T04:56:47;100816.56;;;1.48;100.00
3206;BME280;1615;53.602;11.418;2022-12-13T04:59:13;100793.66;;;1.28;100.00
3206;BME280;1615;53.602;11.418;2022-12-13T05:01:38;100827.69;;;1.29;100.00
3206;BME280;1615;53.602;11.418;2022-12-13T05:04:03;100822.28;;;1.29;100.00
3206;BME280;1615;53.602;11.418;2022-12-13T05:06:29;100820.38;;;1.18;100.00
3206;BME280;1615;53.602;11.418;2022-12-13T05:08:54;100824.13;;;1.17;100.00
3206;BME280;1615;53.602;11.418;2022-12-13T05:11:20;100821.31;;;1.12;100.00
3206;BME280;1615;53.602;11.418;2022-12-13T05:13:45;100808.34;;;0.91;100.00
3206;BME280;1615;53.602;11.418;2022-12-13T05:16:11;100780.09;;;0.64;100.00
3206;BME280;1615;53.602;11.418;2022-12-13T05:18:36;100660.94;;;-0.04;100.00
3206;BME280;1615;53.602;11.418;2022-12-13T05:21:03;100839.59;;;1.10;100.00
3206;BME280;1615;53.602;11.418;2022-12-13T05:23:29;100839.88;;;1.20;100.00
3206;BME280;1615;53.602;11.418;2022-12-13T05:25:54;100828.16;;;1.26;100.00
3206;BME280;1615;53.602;11.418;2022-12-13T05:28:20;100839.28;;;1.18;100.00
3206;BME280;1615;53.602;11.418;2022-12-13T05:30:49;100827.88;;;1.16;100.00
3206;BME280;1615;53.602;11.418;2022-12-13T05:33:15;100822.97;;;1.13;100.00
3206;BME280;1615;53.602;11.418;2022-12-13T05:35:40;100834.19;;;1.10;100.00
3206;BME280;1615;53.602;11.418;2022-12-13T05:38:06;100826.25;;;1.15;100.00
3206;BME280;1615;53.602;11.418;2022-12-13T05:40:31;100757.97;;;0.73;100.00
3206;BME280;1615;53.602;11.418;2022-12-13T05:42:57;100853.59;;;1.18;100.00
3206;BME280;1615;53.602;11.418;2022-12-13T05:45:23;100836.31;;;1.08;100.00
3206;BME280;1615;53.602;11.418;2022-12-13T05:47:49;100839.59;;;1.10;100.00
3206;BME280;1615;53.602;11.418;2022-12-13T05:50:15;100799.72;;;0.82;100.00
3206;BME280;1615;53.602;11.418;2022-12-13T05:52:44;100836.19;;;1.03;100.00
3206;BME280;1615;53.602;11.418;2022-12-13T05:55:10;100846.84;;;0.98;100.00
3206;BME280;1615;53.602;11.418;2022-12-13T05:57:35;100840.47;;;0.92;100.00
3206;BME280;1615;53.602;11.418;2022-12-13T06:00:02;100849.84;;;0.90;100.00
3206;BME280;1615;53.602;11.418;2022-12-13T06:02:28;100852.41;;;0.85;100.00
3206;BME280;1615;53.602;11.418;2022-12-13T06:04:53;100814.69;;;0.67;100.00
3206;BME280;1615;53.602;11.418;2022-12-13T06:07:18;100855.72;;;0.87;100.00
3206;BME280;1615;53.602;11.418;2022-12-13T06:09:44;100844.72;;;0.70;100.00
3206;BME280;1615;53.602;11.418;2022-12-13T06:12:09;100854.16;;;0.79;100.00
3206;BME280;1615;53.602;11.418;2022-12-13T06:14:35;100803.19;;;0.42;100.00
3206;BME280;1615;53.602;11.418;2022-12-13T06:17:00;100856.78;;;0.68;100.00
3206;BME280;1615;53.602;11.418;2022-12-13T06:19:26;100691.78;;;-0.36;100.00
3206;BME280;1615;53.602;11.418;2022-12-13T06:21:53;100831.28;;;0.52;100.00
3206;BME280;1615;53.602;11.418;2022-12-13T06:24:20;100801.41;;;0.18;100.00
3206;BME280;1615;53.602;11.418;2022-12-13T06:26:46;100846.63;;;0.52;100.00
3206;BME280;1615;53.602;11.418;2022-12-13T06:29:16;100787.19;;;0.11;100.00
3206;BME280;1615;53.602;11.418;2022-12-13T06:31:42;100786.22;;;0.05;100.00
3206;BME280;1615;53.602;11.418;2022-12-13T06:34:07;100817.41;;;0.31;100.00
3206;BME280;1615;53.602;11.418;2022-12-13T06:36:33;100856.22;;;0.48;100.00
3206;BME280;1615;53.602;11.418;2022-12-13T06:39:02;100811.28;;;0.24;100.00
3206;BME280;1615;53.602;11.418;2022-12-13T06:41:32;100846.63;;;0.52;100.00
3206;BME280;1615;53.602;11.418;2022-12-13T06:43:58;100850.72;;;0.54;100.00
3206;BME280;1615;53.602;11.418;2022-12-13T06:46:24;100822.75;;;0.37;100.00
3206;BME280;1615;53.602;11.418;2022-12-13T06:48:50;100845.56;;;0.53;100.00
3206;BME280;1615;53.602;11.418;2022-12-13T06:51:16;100843.31;;;0.50;100.00
3206;BME280;1615;53.602;11.418;2022-12-13T06:53:41;100853.28;;;0.49;100.00
3206;BME280;1615;53.602;11.418;2022-12-13T06:56:09;100840.63;;;0.50;100.00
3206;BME280;1615;53.602;11.418;2022-12-13T06:58:35;100855.75;;;0.51;100.00
3206;BME280;1615;53.602;11.418;2022-12-13T07:01:06;100850.00;;;0.47;100.00
3206;BME280;1615;53.602;11.418;2022-12-13T07:03:32;100855.75;;;0.51;100.00
3206;BME280;1615;53.602;11.418;2022-12-13T07:06:25;100864.53;;;0.46;100.00
3206;BME280;1615;53.602;11.418;2022-12-13T07:08:55;100862.78;;;0.52;100.00
3206;BME280;1615;53.602;11.418;2022-12-13T07:11:27;100857.31;;;0.58;100.00
3206;BME280;1615;53.602;11.418;2022-12-13T07:13:53;100838.63;;;0.45;100.00
3206;BME280;1615;53.602;11.418;2022-12-13T07:16:20;100785.38;;;0.05;100.00
3206;BME280;1615;53.602;11.418;2022-12-13T07:18:46;100896.72;;;0.59;100.00
3206;BME280;1615;53.602;11.418;2022-12-13T07:21:13;100854.03;;;0.56;100.00
3206;BME280;1615;53.602;11.418;2022-12-13T07:23:40;100862.13;;;0.56;100.00
3206;BME280;1615;53.602;11.418;2022-12-13T07:26:06;100853.00;;;0.57;100.00
3206;BME280;1615;53.602;11.418;2022-12-13T07:28:34;100853.22;;;0.56;100.00
3206;BME280;1615;53.602;11.418;2022-12-13T07:31:01;100859.03;;;0.53;100.00
3206;BME280;1615;53.602;11.418;2022-12-13T07:33:27;100831.34;;;0.46;100.00
3206;BME280;1615;53.602;11.418;2022-12-13T07:36:38;100856.06;;;0.61;100.00
3206;BME280;1615;53.602;11.418;2022-12-13T07:38:57;100868.69;;;0.60;100.00
3206;BME280;1615;53.602;11.418;2022-12-13T07:41:23;100875.97;;;0.60;100.00
3206;BME280;1615;53.602;11.418;2022-12-13T07:43:50;100867.28;;;0.58;100.00
3206;BME280;1615;53.602;11.418;2022-12-13T07:46:15;100830.91;;;0.13;100.00
3206;BME280;1615;53.602;11.418;2022-12-13T07:48:41;100867.28;;;0.58;100.00
3206;BME280;1615;53.602;11.418;2022-12-13T07:51:08;100868.56;;;0.55;100.00
3206;BME280;1615;53.602;11.418;2022-12-13T07:53:36;100869.81;;;0.53;100.00
3206;BME280;1615;53.602;11.418;2022-12-13T07:56:04;100872.53;;;0.53;100.00
3206;BME280;1615;53.602;11.418;2022-12-13T07:58:30;100790.66;;;0.00;100.00
3206;BME280;1615;53.602;11.418;2022-12-13T08:01:05;100871.94;;;0.51;100.00
3206;BME280;1615;53.602;11.418;2022-12-13T08:03:32;100891.28;;;0.48;100.00
3206;BME280;1615;53.602;11.418;2022-12-13T08:06:05;100872.66;;;0.58;100.00
3206;BME280;1615;53.602;11.418;2022-12-13T08:08:32;100880.53;;;0.59;100.00
3206;BME280;1615;53.602;11.418;2022-12-13T08:11:06;100849.63;;;0.44;100.00
3206;BME280;1615;53.602;11.418;2022-12-13T08:13:32;100877.44;;;0.74;100.00
3206;BME280;1615;53.602;11.418;2022-12-13T08:16:04;100830.34;;;0.58;100.00
3206;BME280;1615;53.602;11.418;2022-12-13T08:18:31;100881.97;;;0.80;100.00
3206;BME280;1615;53.602;11.418;2022-12-13T08:21:06;100891.34;;;0.77;100.00
3206;BME280;1615;53.602;11.418;2022-12-13T08:23:33;100739.88;;;-0.03;100.00
3206;BME280;1615;53.602;11.418;2022-12-13T08:26:00;100878.06;;;0.76;100.00
3206;BME280;1615;53.602;11.418;2022-12-13T08:28:26;100881.19;;;0.73;100.00
3206;BME280;1615;53.602;11.418;2022-12-13T08:30:52;100826.34;;;0.31;100.00
3206;BME280;1615;53.602;11.418;2022-12-13T08:33:18;100821.16;;;0.30;100.00
3206;BME280;1615;53.602;11.418;2022-12-13T08:35:43;100886.97;;;0.76;100.00
3206;BME280;1615;53.602;11.418;2022-12-13T08:38:09;100828.81;;;0.33;100.00
3206;BME280;1615;53.602;11.418;2022-12-13T08:40:35;100890.66;;;0.82;100.00
3206;BME280;1615;53.602;11.418;2022-12-13T08:43:01;100882.69;;;0.87;100.00
3206;BME280;1615;53.602;11.418;2022-12-13T08:45:26;100880.59;;;0.89;100.00
3206;BME280;1615;53.602;11.418;2022-12-13T08:47:52;100881.63;;;0.88;100.00
3206;BME280;1615;53.602;11.418;2022-12-13T08:50:18;100875.25;;;0.82;100.00
3206;BME280;1615;53.602;11.418;2022-12-13T08:52:44;100839.13;;;0.54;100.00
3206;BME280;1615;53.602;11.418;2022-12-13T08:55:11;100887.94;;;0.82;100.00
3206;BME280;1615;53.602;11.418;2022-12-13T08:57:37;100905.34;;;0.86;100.00
3206;BME280;1615;53.602;11.418;2022-12-13T09:00:04;100882.91;;;0.85;100.00
3206;BME280;1615;53.602;11.418;2022-12-13T09:02:30;100882.31;;;0.83;100.00
3206;BME280;1615;53.602;11.418;2022-12-13T09:04:55;100877.75;;;0.84;100.00
3206;BME280;1615;53.602;11.418;2022-12-13T09:07:21;100878.78;;;0.83;100.00
3206;BME280;1615;53.602;11.418;2022-12-13T09:09:46;100707.19;;;-0.25;100.00
3206;BME280;1615;53.602;11.418;2022-12-13T09:12:12;100882.47;;;0.88;100.00
3206;BME280;1615;53.602;11.418;2022-12-13T09:14:37;100884.78;;;0.85;100.00
3206;BME280;1615;53.602;11.418;2022-12-13T09:17:03;100884.13;;;0.89;100.00
3206;BME280;1615;53.602;11.418;2022-12-13T09:19:28;100884.41;;;0.99;100.00
3206;BME280;1615;53.602;11.418;2022-12-13T09:21:54;100881.97;;;1.09;100.00
3206;BME280;1615;53.602;11.418;2022-12-13T09:24:19;100882.63;;;1.23;100.00
3206;BME280;1615;53.602;11.418;2022-12-13T09:26:45;100884.97;;;1.31;100.00
3206;BME280;1615;53.602;11.418;2022-12-13T09:29:10;100897.78;;;1.35;100.00
3206;BME280;1615;53.602;11.418;2022-12-13T09:31:35;100794.47;;;0.87;100.00
3206;BME280;1615;53.602;11.418;2022-12-13T09:34:02;100891.72;;;1.51;100.00
3206;BME280;1615;53.602;11.418;2022-12-13T09:36:27;100755.38;;;0.78;100.00
3206;BME280;1615;53.602;11.418;2022-12-13T09:38:53;100887.84;;;1.59;100.00
3206;BME280;1615;53.602;11.418;2022-12-13T09:41:42;100888.00;;;1.64;100.00
3206;BME280;1615;53.602;11.418;2022-12-13T09:46:48;100886.94;;;1.53;100.00
3206;BME280;1615;53.602;11.418;2022-12-13T09:49:26;100802.28;;;1.07;100.00
3206;BME280;1615;53.602;11.418;2022-12-13T09:51:56;100887.50;;;1.55;100.00
3206;BME280;1615;53.602;11.418;2022-12-13T09:54:23;100835.41;;;1.14;100.00
3206;BME280;1615;53.602;11.418;2022-12-13T09:56:49;100889.63;;;1.53;100.00
3206;BME280;1615;53.602;11.418;2022-12-13T09:59:16;100890.38;;;1.72;100.00
3206;BME280;1615;53.602;11.418;2022-12-13T10:01:44;100884.00;;;1.66;100.00
3206;BME280;1615;53.602;11.418;2022-12-13T10:04:12;100903.63;;;1.62;100.00
3206;BME280;1615;53.602;11.418;2022-12-13T10:06:38;100878.25;;;1.63;100.00
3206;BME280;1615;53.602;11.418;2022-12-13T10:09:05;100881.78;;;1.75;100.00
3206;BME280;1615;53.602;11.418;2022-12-13T10:11:32;100847.47;;;1.52;100.00
3206;BME280;1615;53.602;11.418;2022-12-13T10:14:17;100880.09;;;1.62;100.00
3206;BME280;1615;53.602;11.418;2022-12-13T10:16:50;100862.25;;;1.50;100.00
3206;BME280;1615;53.602;11.418;2022-12-13T10:19:22;100882.47;;;1.59;100.00
3206;BME280;1615;53.602;11.418;2022-12-13T10:21:49;100869.31;;;1.51;100.00
3206;BME280;1615;53.602;11.418;2022-12-13T10:24:21;100879.63;;;1.54;100.00
3206;BME280;1615;53.602;11.418;2022-12-13T10:26:50;100878.25;;;1.63;100.00
3206;BME280;1615;53.602;11.418;2022-12-13T10:29:15;100878.16;;;1.69;100.00
3206;BME280;1615;53.602;11.418;2022-12-13T10:31:43;100844.16;;;1.39;100.00
3206;BME280;1615;53.602;11.418;2022-12-13T10:34:24;100875.94;;;1.78;100.00
3206;BME280;1615;53.602;11.418;2022-12-13T10:36:51;100874.53;;;1.87;100.00
3206;BME280;1615;53.602;11.418;2022-12-13T10:39:35;100865.25;;;1.83;100.00
3206;BME280;1615;53.602;11.418;2022-12-13T10:42:03;100870.66;;;1.83;100.00
3206;BME280;1615;53.602;11.418;2022-12-13T10:44:29;100862.31;;;1.84;100.00
3206;BME280;1615;53.602;11.418;2022-12-13T10:47:02;100864.63;;;1.81;100.00
3206;BME280;1615;53.602;11.418;2022-12-13T10:49:35;100861.94;;;1.81;100.00
3206;BME280;1615;53.602;11.418;2022-12-13T10:52:02;100866.84;;;1.72;100.00
3206;BME280;1615;53.602;11.418;2022-12-13T10:54:33;100848.75;;;1.61;100.00
3206;BME280;1615;53.602;11.418;2022-12-13T10:57:01;100856.28;;;1.59;100.00
3206;BME280;1615;53.602;11.418;2022-12-13T10:59:36;100859.22;;;1.58;100.00
3206;BME280;1615;53.602;11.418;2022-12-13T11:02:30;100852.88;;;1.64;100.00
3206;BME280;1615;53.602;11.418;2022-12-13T11:04:57;100846.75;;;1.57;100.00
3206;BME280;1615;53.602;11.418;2022-12-13T11:07:32;100753.84;;;1.12;100.00
3206;BME280;1615;53.602;11.418;2022-12-13T11:10:25;100853.34;;;1.61;100.00
3206;BME280;1615;53.602;11.418;2022-12-13T11:12:59;100847.69;;;1.62;100.00
3206;BME280;1615;53.602;11.418;2022-12-13T11:15:26;100840.78;;;1.66;100.00
3206;BME280;1615;53.602;11.418;2022-12-13T11:17:56;100837.84;;;1.68;100.00
3206;BME280;1615;53.602;11.418;2022-12-13T11:20:52;100824.13;;;1.69;100.00
3206;BME280;1615;53.602;11.418;2022-12-13T11:23:26;100770.88;;;1.24;100.00
3206;BME280;1615;53.602;11.418;2022-12-13T11:25:55;100832.19;;;1.58;100.00
3206;BME280;1615;53.602;11.418;2022-12-13T11:28:59;100831.25;;;1.64;100.00
3206;BME280;1615;53.602;11.418;2022-12-13T11:34:48;100812.59;;;1.85;100.00
3206;BME280;1615;53.602;11.418;2022-12-13T11:37:25;100813.88;;;1.83;100.00
3206;BME280;1615;53.602;11.418;2022-12-13T11:39:56;100426.63;;;-0.44;100.00
3206;BME280;1615;53.602;11.418;2022-12-13T11:42:28;100809.53;;;1.93;100.00
3206;BME280;1615;53.602;11.418;2022-12-13T11:45:29;100805.66;;;2.01;100.00
3206;BME280;1615;53.602;11.418;2022-12-13T11:48:01;100799.78;;;2.04;100.00
3206;BME280;1615;53.602;11.418;2022-12-13T11:50:42;100708.53;;;1.60;100.00
3206;BME280;1615;53.602;11.418;2022-12-13T11:55:54;100796.34;;;2.20;100.00
3206;BME280;1615;53.602;11.418;2022-12-13T11:58:36;100795.50;;;2.19;100.00
3206;BME280;1615;53.602;11.418;2022-12-13T12:01:18;100791.50;;;2.22;100.00
3206;BME280;1615;53.602;11.418;2022-12-13T12:03:49;100788.22;;;2.20;100.00
3206;BME280;1615;53.602;11.418;2022-12-13T12:08:58;100788.00;;;2.10;100.00
3206;BME280;1615;53.602;11.418;2022-12-13T12:14:23;100776.94;;;2.23;100.00
3206;BME280;1615;53.602;11.418;2022-12-13T12:16:58;100717.34;;;1.67;100.00
3206;BME280;1615;53.602;11.418;2022-12-13T12:19:35;100781.66;;;2.16;100.00
3206;BME280;1615;53.602;11.418;2022-12-13T12:22:26;100782.34;;;2.23;100.00
3206;BME280;1615;53.602;11.418;2022-12-13T12:25:09;100780.34;;;2.30;100.00
3206;BME280;1615;53.602;11.418;2022-12-13T12:28:01;100779.28;;;2.31;100.00
3206;BME280;1615;53.602;11.418;2022-12-13T12:33:28;100779.28;;;2.59;100.00
3206;BME280;1615;53.602;11.418;2022-12-13T12:36:07;100774.19;;;2.74;100.00
3206;BME280;1615;53.602;11.418;2022-12-13T12:43:43;100770.78;;;2.95;100.00
3206;BME280;1615;53.602;11.418;2022-12-13T12:59:30;100769.16;;;2.94;100.00
3206;BME280;1615;53.602;11.418;2022-12-13T13:02:05;100775.97;;;2.96;100.00
3206;BME280;1615;53.602;11.418;2022-12-13T13:04:43;100752.03;;;2.77;100.00
3206;BME280;1615;53.602;11.418;2022-12-13T13:07:33;100686.06;;;2.22;100.00
3206;BME280;1615;53.602;11.418;2022-12-13T13:10:02;100784.03;;;2.80;100.00
3206;BME280;1615;53.602;11.418;2022-12-13T13:12:28;100789.59;;;2.73;100.00
3206;BME280;1615;53.602;11.418;2022-12-13T13:14:56;100784.16;;;2.73;100.00
3206;BME280;1615;53.602;11.418;2022-12-13T13:22:31;100791.38;;;2.68;100.00
3206;BME280;1615;53.602;11.418;2022-12-13T13:25:20;100778.22;;;2.60;100.00
3206;BME280;1615;53.602;11.418;2022-12-13T13:27:48;100793.31;;;2.56;100.00
3206;BME280;1615;53.602;11.418;2022-12-13T13:30:23;100717.72;;;2.10;100.00
3206;BME280;1615;53.602;11.418;2022-12-13T13:32:54;100772.66;;;2.38;100.00
3206;BME280;1615;53.602;11.418;2022-12-13T13:38:02;100773.09;;;2.47;100.00
3206;BME280;1615;53.602;11.418;2022-12-13T13:40:36;100769.81;;;2.45;100.00
3206;BME280;1615;53.602;11.418;2022-12-13T13:48:39;100786.16;;;1.99;100.00
3206;BME280;1615;53.602;11.418;2022-12-13T13:51:26;100705.47;;;1.22;100.00
3206;BME280;1615;53.602;11.418;2022-12-13T14:21:36;100704.81;;;0.74;100.00
3206;BME280;1615;53.602;11.418;2022-12-13T14:29:52;100783.00;;;0.92;100.00
3206;BME280;1615;53.602;11.418;2022-12-13T14:34:44;100739.66;;;0.46;100.00
3206;BME280;1615;53.602;11.418;2022-12-13T14:39:55;100766.19;;;0.78;100.00
3206;BME280;1615;53.602;11.418;2022-12-13T14:42:32;100663.53;;;0.03;100.00
3206;BME280;1615;53.602;11.418;2022-12-13T14:45:35;100767.00;;;0.79;100.00
3206;BME280;1615;53.602;11.418;2022-12-13T14:48:11;100767.91;;;0.73;100.00
3206;BME280;1615;53.602;11.418;2022-12-13T14:50:40;100771.09;;;0.70;100.00
3206;BME280;1615;53.602;11.418;2022-12-13T14:53:26;100680.84;;;0.13;100.00
3206;BME280;1615;53.602;11.418;2022-12-13T14:58:31;100766.19;;;0.78;100.00
3206;BME280;1615;53.602;11.418;2022-12-13T15:00:56;100766.31;;;0.83;100.00
3206;BME280;1615;53.602;11.418;2022-12-13T15:03:26;100784.00;;;0.79;100.00